Milan Bergamo Airport

LIME · Lombardy, Italy

METAR history LIME · Milan Bergamo Airport

Below you see METARs of the last few days. Select a year to browse through older METARs, from the year 2007 onwards.

December 2, 2022

Time Code Weather Temp. Visibility Ceiling Wind METAR/SPECI
20:20
M
6 °C 7 km 3,500 ft Var Var 1 kt METAR LIME 021920Z VRB01KT 7000 FEW015 BKN035 06/05 Q1018 NOSIG
19:50
M
6 °C 7 km 3,000 ft 010° 010° 2 kt METAR LIME 021850Z 01002KT 7000 FEW015 BKN030 06/05 Q1018 NOSIG
19:20
M
6 °C 6 km 3,000 ft Var Var 1 kt METAR LIME 021820Z VRB01KT 6000 FEW015 BKN030 06/05 Q1018 NOSIG
18:50
M
6 °C 7 km 4,000 ft Var Var 1 kt METAR LIME 021750Z VRB01KT 7000 FEW015 BKN040 06/05 Q1018 NOSIG
18:20
M
6 °C 6 km 4,000 ft 330° 330° 1 kt METAR LIME 021720Z 33001KT 6000 -DZ SCT015 BKN040 06/05 Q1018 NOSIG
17:50
M
6 °C 6 km 4,000 ft 100° 100° 2 kt METAR LIME 021650Z 10002KT 6000 -DZ SCT015 BKN040 06/05 Q1018 NOSIG
17:20
M
6 °C 6 km 3,000 ft 170° 170° 3 kt METAR LIME 021620Z 17003KT 120V220 6000 -DZ SCT015 BKN030 06/04 Q1018 NOSIG
16:50
M
6 °C 5 km 1,500 ft 180° 180° 3 kt METAR LIME 021550Z 18003KT 150V210 5000 -RA BR BKN015 BKN040 06/05 Q1018 NOSIG
16:20
V
7 °C 8 km 4,000 ft 170° 170° 4 kt METAR LIME 021520Z 17004KT 140V210 8000 SCT015 BKN040 07/04 Q1018 NOSIG
15:50
M
7 °C 7 km 4,000 ft 180° 180° 3 kt METAR LIME 021450Z 18003KT 150V220 7000 SCT015 BKN040 07/04 Q1018 NOSIG
15:20
V
7 °C 8 km 4,000 ft 180° 180° 2 kt METAR LIME 021420Z 18002KT 8000 SCT015 BKN040 07/04 Q1017 NOSIG
14:50
V
7 °C 9 km 4,000 ft 180° 180° 4 kt METAR LIME 021350Z 18004KT 150V210 9000 SCT015 BKN040 07/04 Q1017 NOSIG
14:20
V
7 °C 9 km 4,500 ft Var Var 2 kt METAR LIME 021320Z VRB02KT 9000 SCT015 BKN045 07/04 Q1017 NOSIG
13:50
V
7 °C 10 km+ 5,000 ft 190° 190° 3 kt METAR LIME 021250Z 19003KT 150V210 9999 SCT015 BKN050 07/04 Q1018 NOSIG
13:20
V
7 °C 10 km+ 5,000 ft Var Var 2 kt METAR LIME 021220Z VRB02KT 9999 SCT015 BKN050 07/04 Q1018 NOSIG
12:50
V
7 °C 10 km+ 5,000 ft 230° 230° 3 kt METAR LIME 021150Z 23003KT 200V280 9999 BKN050 07/04 Q1018 NOSIG
12:20
V
7 °C 10 km+ - 230° 230° 3 kt METAR LIME 021120Z 23003KT 180V280 9999 SCT015 SCT055 07/03 Q1018 NOSIG
11:50
V
7 °C 10 km+ - 200° 200° 4 kt METAR LIME 021050Z 20004KT 160V240 9999 SCT015 SCT055 07/04 Q1018 NOSIG
11:20
V
7 °C 10 km+ - 210° 210° 5 kt METAR LIME 021020Z 21005KT 180V240 9999 SCT015 SCT025 07/03 Q1018 NOSIG
10:50
V
6 °C 10 km+ - 220° 220° 4 kt METAR LIME 020950Z 22004KT 180V260 9999 SCT015 SCT050 06/03 Q1019 NOSIG
10:20
V
6 °C 10 km+ 5,500 ft 230° 230° 4 kt METAR LIME 020920Z 23004KT 190V270 9999 BKN055 06/03 Q1018 NOSIG
09:50
V
6 °C 10 km+ - 220° 220° 4 kt METAR LIME 020850Z 22004KT 9999 SCT055 SCT085 06/03 Q1018 NOSIG
09:20
V
6 °C 10 km+ 8,500 ft 240° 240° 4 kt METAR LIME 020820Z 24004KT 9999 BKN085 06/03 Q1018 NOSIG
08:50
V
6 °C 10 km+ 8,500 ft 240° 240° 5 kt METAR LIME 020750Z 24005KT 9999 BKN085 06/03 Q1018 NOSIG
08:20
V
6 °C 10 km+ 8,500 ft 210° 210° 3 kt METAR LIME 020720Z 21003KT 180V240 9999 BKN085 06/03 Q1018 NOSIG
07:50
V
5 °C 10 km+ 8,000 ft 150° 150° 1 kt METAR LIME 020650Z 15001KT 9999 BKN080 05/02 Q1018 NOSIG
07:20
V
5 °C 10 km+ 8,000 ft Var Var 1 kt METAR LIME 020620Z VRB01KT 9999 BKN080 05/02 Q1018 NOSIG
06:50
V
5 °C 10 km+ 8,500 ft Var Var 1 kt METAR LIME 020550Z VRB01KT 9999 BKN085 05/02 Q1018 NOSIG
06:20
V
5 °C 10 km+ 8,500 ft 110° 110° 3 kt METAR LIME 020520Z 11003KT 070V140 9999 BKN085 05/02 Q1018 NOSIG
05:50
V
6 °C 10 km+ 8,500 ft Var Var 2 kt METAR LIME 020450Z VRB02KT 9999 BKN085 06/02 Q1018 NOSIG
04:50
V
5 °C 10 km+ 8,500 ft 020° 020° 4 kt METAR LIME 020350Z 02004KT 9999 FEW045 BKN085 05/02 Q1018 NOSIG
04:20
V
5 °C 10 km+ 8,500 ft 020° 020° 5 kt METAR LIME 020320Z 02005KT 9999 BKN085 05/02 Q1018 NOSIG
03:50
V
4 °C 10 km+ 8,500 ft 020° 020° 5 kt METAR LIME 020250Z 02005KT 9999 BKN085 04/02 Q1018 NOSIG
03:20
V
4 °C 10 km+ 8,500 ft 020° 020° 5 kt METAR LIME 020220Z 02005KT 9999 BKN085 04/02 Q1018 NOSIG
02:50
V
4 °C 10 km+ 8,500 ft 020° 020° 3 kt METAR LIME 020150Z 02003KT 9999 BKN085 04/02 Q1018 NOSIG
02:20
V
4 °C 10 km+ 8,500 ft 010° 010° 5 kt METAR LIME 020120Z 01005KT 9999 BKN085 04/02 Q1018 NOSIG
01:50
V
4 °C 10 km+ 8,500 ft 010° 010° 5 kt METAR LIME 020050Z 01005KT 9999 BKN085 04/02 Q1018 NOSIG
01:20
V
4 °C 10 km+ 8,500 ft 010° 010° 5 kt METAR LIME 020020Z 01005KT 9999 BKN085 04/02 Q1018 NOSIG
00:50
V
4 °C 10 km+ 8,000 ft 010° 010° 5 kt METAR LIME 012350Z 01005KT 9999 BKN080 04/02 Q1018 NOSIG
00:20
V
4 °C 10 km+ 8,000 ft 020° 020° 5 kt METAR LIME 012320Z 02005KT 9999 BKN080 04/02 Q1018 NOSIG

December 1, 2022

Time Code Weather Temp. Visibility Ceiling Wind METAR/SPECI
23:50
V
4 °C 10 km+ 8,000 ft 020° 020° 5 kt METAR LIME 012250Z 02005KT 9999 BKN080 04/02 Q1018 NOSIG
23:20
V
4 °C 10 km+ 8,000 ft 010° 010° 5 kt METAR LIME 012220Z 01005KT 9999 BKN080 04/02 Q1018 NOSIG
22:50
V
4 °C 10 km+ 7,500 ft 010° 010° 4 kt METAR LIME 012150Z 01004KT 9999 BKN075 04/02 Q1018 NOSIG
22:20
V
5 °C 10 km+ 8,000 ft 010° 010° 3 kt METAR LIME 012120Z 01003KT 9999 BKN080 05/02 Q1018 NOSIG
21:50
V
5 °C 10 km+ 8,000 ft 020° 020° 3 kt METAR LIME 012050Z 02003KT 9999 BKN080 05/03 Q1018 NOSIG
21:20
V
5 °C 10 km+ 8,000 ft 010° 010° 4 kt METAR LIME 012020Z 01004KT 9999 BKN080 05/02 Q1018 NOSIG
20:50
V
5 °C 10 km+ 8,000 ft 020° 020° 4 kt METAR LIME 011950Z 02004KT 9999 BKN080 05/03 Q1018 NOSIG
20:20
V
5 °C 10 km+ 8,000 ft Var Var 2 kt METAR LIME 011920Z VRB02KT 9999 BKN080 05/03 Q1018 NOSIG
19:50
V
5 °C 9 km 8,000 ft Var Var 2 kt METAR LIME 011850Z VRB02KT 9000 BKN080 05/03 Q1018 NOSIG
19:20
V
5 °C 9 km 8,000 ft 020° 020° 2 kt METAR LIME 011820Z 02002KT 9000 BKN080 05/03 Q1017 NOSIG
18:50
V
5 °C 9 km 8,000 ft 350° 350° 1 kt METAR LIME 011750Z 35001KT 9000 BKN080 05/03 Q1017 NOSIG
18:20
V
5 °C 10 km+ 8,000 ft Var 000° 0 kt METAR LIME 011720Z 00000KT 9999 BKN080 05/03 Q1017 NOSIG
17:50
V
5 °C 9 km 8,000 ft Var Var 1 kt METAR LIME 011650Z VRB01KT 9000 BKN080 05/03 Q1017 NOSIG
17:20
V
6 °C 8 km 8,000 ft Var Var 2 kt METAR LIME 011620Z VRB02KT 8000 BKN080 06/03 Q1017 NOSIG
16:50
V
7 °C 10 km+ 8,000 ft 200° 200° 4 kt METAR LIME 011550Z 20004KT 9999 BKN080 07/03 Q1017 NOSIG
16:20
M
7 °C 7 km - 210° 210° 4 kt METAR LIME 011520Z 21004KT 7000 NSC 07/03 Q1017 NOSIG
15:50
V
8 °C 10 km+ - 230° 230° 3 kt METAR LIME 011450Z 23003KT CAVOK 08/03 Q1017 NOSIG
15:20
V
8 °C 10 km+ - Var Var 2 kt METAR LIME 011420Z VRB02KT CAVOK 08/02 Q1017 NOSIG
14:50
V
9 °C 10 km+ - 190° 190° 3 kt METAR LIME 011350Z 19003KT CAVOK 09/03 Q1017 NOSIG
14:20
V
9 °C 10 km+ - 200° 200° 4 kt METAR LIME 011320Z 20004KT 170V230 CAVOK 09/02 Q1017 NOSIG
13:50
V
9 °C 10 km+ - 190° 190° 3 kt METAR LIME 011250Z 19003KT 130V250 CAVOK 09/01 Q1017 NOSIG
13:20
V
10 °C 10 km+ - Var Var 2 kt METAR LIME 011220Z VRB02KT CAVOK 10/02 Q1018 NOSIG
12:50
V
10 °C 10 km+ - Var Var 2 kt METAR LIME 011150Z VRB02KT CAVOK 10/01 Q1018 NOSIG
12:20
V
9 °C 10 km+ - 180° 180° 3 kt METAR LIME 011120Z 18003KT 100V210 CAVOK 09/01 Q1018 NOSIG
11:50
V
9 °C 10 km+ - Var Var 2 kt METAR LIME 011050Z VRB02KT CAVOK 09/01 Q1018 NOSIG
11:20
V
8 °C 10 km+ - Var Var 1 kt METAR LIME 011020Z VRB01KT CAVOK 08/01 Q1019 NOSIG
10:50
V
7 °C 10 km+ - Var Var 2 kt METAR LIME 010950Z VRB02KT CAVOK 07/01 Q1019 NOSIG
10:20
V
6 °C 10 km+ - Var Var 2 kt METAR LIME 010920Z VRB02KT CAVOK 06/02 Q1019 NOSIG
09:50
V
5 °C 10 km+ - 020° 020° 2 kt METAR LIME 010850Z 02002KT CAVOK 05/01 Q1019 NOSIG
09:20
V
3 °C 10 km+ - 360° 360° 4 kt METAR LIME 010820Z 36004KT CAVOK 03/01 Q1019 NOSIG
08:50
V
2 °C 10 km+ - 010° 010° 4 kt METAR LIME 010750Z 01004KT CAVOK 02/M00 Q1018 NOSIG
08:20
V
1 °C 10 km+ - 360° 360° 4 kt METAR LIME 010720Z 36004KT CAVOK 01/M01 Q1018 NOSIG
07:50
V
1 °C 10 km+ - 010° 010° 4 kt METAR LIME 010650Z 01004KT CAVOK 01/M00 Q1018 NOSIG
07:20
V
1 °C 10 km+ - 030° 030° 3 kt METAR LIME 010620Z 03003KT CAVOK 01/M00 Q1018 NOSIG
06:50
V
1 °C 10 km+ - 010° 010° 1 kt METAR LIME 010550Z 01001KT CAVOK 01/M01 Q1018 NOSIG
06:20
V
1 °C 10 km+ - 020° 020° 4 kt METAR LIME 010520Z 02004KT CAVOK 01/M00 Q1018 NOSIG
05:50
V
2 °C 10 km+ - 350° 350° 4 kt METAR LIME 010450Z 35004KT CAVOK 02/M00 Q1018 NOSIG
05:20
V
1 °C 10 km+ - 010° 010° 3 kt METAR LIME 010420Z 01003KT CAVOK 01/M00 Q1018 NOSIG
04:50
V
0 °C 10 km+ - 010° 010° 3 kt METAR LIME 010350Z 01003KT CAVOK 00/M01 Q1018 NOSIG
04:20
V
1 °C 10 km+ - 020° 020° 4 kt METAR LIME 010320Z 02004KT CAVOK 01/M01 Q1018 NOSIG
03:50
V
1 °C 10 km+ - 010° 010° 4 kt METAR LIME 010250Z 01004KT CAVOK 01/M00 Q1018 NOSIG
03:20
V
2 °C 10 km+ - 360° 360° 4 kt METAR LIME 010220Z 36004KT CAVOK 02/00 Q1018 NOSIG
02:50
V
2 °C 10 km+ - 360° 360° 4 kt METAR LIME 010150Z 36004KT CAVOK 02/00 Q1018 NOSIG
01:20
V
2 °C 10 km+ - 010° 010° 4 kt METAR LIME 010020Z 01004KT CAVOK 02/00 Q1018 NOSIG
00:50
V
2 °C 10 km+ - 020° 020° 4 kt METAR LIME 302350Z 02004KT CAVOK 02/01 Q1018 NOSIG
00:20
V
3 °C 9 km - 350° 350° 3 kt METAR LIME 302320Z 35003KT 9000 NSC 03/02 Q1018 NOSIG

November 30, 2022

Time Code Weather Temp. Visibility Ceiling Wind METAR/SPECI
23:50
V
2 °C 9 km - 350° 350° 3 kt METAR LIME 302250Z 35003KT 9000 NSC 02/01 Q1018 NOSIG
23:20
V
3 °C 9 km - 360° 360° 3 kt METAR LIME 302220Z 36003KT 9000 NSC 03/01 Q1018 NOSIG
22:50
V
2 °C 9 km - 030° 030° 3 kt METAR LIME 302150Z 03003KT 9000 NSC 02/01 Q1018 NOSIG
22:20
V
3 °C 9 km - 010° 010° 4 kt METAR LIME 302120Z 01004KT 9000 NSC 03/01 Q1018 NOSIG
21:50
V
3 °C 9 km - 360° 360° 4 kt METAR LIME 302050Z 36004KT 9000 NSC 03/01 Q1018 NOSIG
21:20
V
4 °C 9 km - 060° 060° 3 kt METAR LIME 302020Z 06003KT 9000 NSC 04/02 Q1018 NOSIG
20:50
V
4 °C 9 km - 060° 060° 2 kt METAR LIME 301950Z 06002KT 9000 NSC 04/02 Q1018 NOSIG
20:20
V
4 °C 9 km - Var Var 2 kt METAR LIME 301920Z VRB02KT 9000 NSC 04/02 Q1018 NOSIG
19:50
V
5 °C 9 km - Var Var 2 kt METAR LIME 301850Z VRB02KT 9000 FEW060 05/02 Q1018 NOSIG
19:20
V
6 °C 8 km - 330° 330° 5 kt METAR LIME 301820Z 33005KT 8000 FEW060 06/02 Q1017 NOSIG
18:50
V
6 °C 8 km - 330° 330° 5 kt METAR LIME 301750Z 33005KT 8000 FEW060 06/02 Q1018 NOSIG
18:20
M
6 °C 7 km - 320° 320° 4 kt METAR LIME 301720Z 32004KT 7000 FEW060 06/03 Q1018 NOSIG
17:50
M
6 °C 7 km - 320° 320° 5 kt METAR LIME 301650Z 32005KT 7000 SCT060 06/02 Q1018 NOSIG
17:20
M
6 °C 6 km - 330° 330° 6 kt METAR LIME 301620Z 33006KT 6000 SCT060 06/02 Q1018 NOSIG
16:50
M
6 °C 7 km - 320° 320° 3 kt METAR LIME 301550Z 32003KT 7000 SCT060 06/02 Q1018 NOSIG
16:20
M
7 °C 7 km 4,500 ft 350° 350° 3 kt METAR LIME 301520Z 35003KT 310V020 7000 BKN045 07/02 Q1018 NOSIG
15:50
M
7 °C 7 km 4,500 ft 310° 310° 3 kt METAR LIME 301450Z 31003KT 270V360 7000 BKN045 07/01 Q1018 NOSIG
15:20
V
7 °C 8 km 4,000 ft Var Var 2 kt METAR LIME 301420Z VRB02KT 8000 BKN040 07/02 Q1018 NOSIG
14:50
V
6 °C 8 km 3,500 ft Var Var 1 kt METAR LIME 301350Z VRB01KT 8000 BKN035 06/02 Q1018 NOSIG
14:20
M
6 °C 7 km 3,000 ft 100° 100° 4 kt METAR LIME 301320Z 10004KT 070V130 7000 BKN030 06/02 Q1018 NOSIG
13:50
M
6 °C 7 km 3,000 ft 100° 100° 6 kt METAR LIME 301250Z 10006KT 7000 BKN030 06/02 Q1018 NOSIG
13:20
M
6 °C 7 km 3,000 ft 100° 100° 5 kt METAR LIME 301220Z 10005KT 7000 BKN030 06/02 Q1018 NOSIG
12:50
M
6 °C 7 km 3,000 ft 090° 090° 4 kt METAR LIME 301150Z 09004KT 7000 BKN030 06/01 Q1018 NOSIG
12:20
V
6 °C 8 km 3,000 ft 090° 090° 5 kt METAR LIME 301120Z 09005KT 8000 BKN030 06/01 Q1018 NOSIG
11:50
V
6 °C 8 km 3,000 ft 100° 100° 5 kt METAR LIME 301050Z 10005KT 8000 BKN030 06/02 Q1018 NOSIG
11:20
M
6 °C 7 km 2,000 ft 110° 110° 5 kt METAR LIME 301020Z 11005KT 7000 BKN020 BKN035 06/02 Q1019 NOSIG
10:50
M
6 °C 7 km 2,000 ft 110° 110° 7 kt METAR LIME 300950Z 11007KT 7000 BKN020 BKN035 06/03 Q1019 NOSIG

We and third parties follow your internet behavior on our website with cookies. If you continue, we assume you agree with our cookie policy.